sensor_id;sensor_type;location;lat;lon;timestamp;pressure;altitude;pressure_sealevel;temperature;humidity
30021;BME280;16861;52.294;7.760;2023-11-19T00:00:10;99033.25;;;11.74;82.03
30021;BME280;16861;52.294;7.760;2023-11-19T00:02:46;99022.69;;;11.74;82.05
30021;BME280;16861;52.294;7.760;2023-11-19T00:05:23;99028.47;;;11.79;81.80
30021;BME280;16861;52.294;7.760;2023-11-19T00:07:54;99028.09;;;11.84;81.82
30021;BME280;16861;52.294;7.760;2023-11-19T00:10:20;99028.50;;;11.91;81.72
30021;BME280;16861;52.294;7.760;2023-11-19T00:12:48;99020.56;;;11.91;81.94
30021;BME280;16861;52.294;7.760;2023-11-19T00:15:17;99016.03;;;11.93;81.70
30021;BME280;16861;52.294;7.760;2023-11-19T00:17:47;99016.88;;;11.93;81.90
30021;BME280;16861;52.294;7.760;2023-11-19T00:20:17;99007.06;;;11.95;81.93
30021;BME280;16861;52.294;7.760;2023-11-19T00:22:44;99004.19;;;11.98;82.03
30021;BME280;16861;52.294;7.760;2023-11-19T00:25:16;98999.53;;;12.02;81.92
30021;BME280;16861;52.294;7.760;2023-11-19T00:27:43;98994.13;;;12.04;81.93
30021;BME280;16861;52.294;7.760;2023-11-19T00:30:13;98993.94;;;12.07;82.03
30021;BME280;16861;52.294;7.760;2023-11-19T00:32:41;98994.53;;;12.10;81.95
30021;BME280;16861;52.294;7.760;2023-11-19T00:35:08;98989.16;;;12.12;81.84
30021;BME280;16861;52.294;7.760;2023-11-19T00:37:36;98984.59;;;12.14;81.96
30021;BME280;16861;52.294;7.760;2023-11-19T00:40:03;98978.22;;;12.17;82.04
30021;BME280;16861;52.294;7.760;2023-11-19T00:42:32;98983.41;;;12.18;82.03
30021;BME280;16861;52.294;7.760;2023-11-19T00:44:59;98967.34;;;12.21;82.05
30021;BME280;16861;52.294;7.760;2023-11-19T00:47:25;98969.03;;;12.22;82.02
30021;BME280;16861;52.294;7.760;2023-11-19T00:49:52;98952.09;;;12.25;81.81
30021;BME280;16861;52.294;7.760;2023-11-19T00:52:19;98962.53;;;12.27;82.28
30021;BME280;16861;52.294;7.760;2023-11-19T00:54:45;98957.03;;;12.30;82.34
30021;BME280;16861;52.294;7.760;2023-11-19T00:57:12;98964.84;;;12.31;82.21
30021;BME280;16861;52.294;7.760;2023-11-19T00:59:41;98966.53;;;12.32;82.29
30021;BME280;16861;52.294;7.760;2023-11-19T01:02:08;98967.97;;;12.36;82.36
30021;BME280;16861;52.294;7.760;2023-11-19T01:04:35;98955.47;;;12.38;82.72
30021;BME280;16861;52.294;7.760;2023-11-19T01:07:02;98957.78;;;12.43;82.36
30021;BME280;16861;52.294;7.760;2023-11-19T01:09:33;98942.53;;;12.47;82.56
30021;BME280;16861;52.294;7.760;2023-11-19T01:12:02;98947.69;;;12.48;82.80
30021;BME280;16861;52.294;7.760;2023-11-19T01:14:29;98932.44;;;12.52;82.73
30021;BME280;16861;52.294;7.760;2023-11-19T01:16:56;98940.13;;;12.55;82.79
30021;BME280;16861;52.294;7.760;2023-11-19T01:19:23;98946.00;;;12.59;82.73
30021;BME280;16861;52.294;7.760;2023-11-19T01:21:50;98940.47;;;12.62;83.03
30021;BME280;16861;52.294;7.760;2023-11-19T01:24:17;98940.25;;;12.65;82.89
30021;BME280;16861;52.294;7.760;2023-11-19T01:26:44;98927.75;;;12.67;83.03
30021;BME280;16861;52.294;7.760;2023-11-19T01:29:15;98923.91;;;12.71;83.00
30021;BME280;16861;52.294;7.760;2023-11-19T01:31:42;98917.53;;;12.74;82.76
30021;BME280;16861;52.294;7.760;2023-11-19T01:34:10;98916.44;;;12.76;83.04
30021;BME280;16861;52.294;7.760;2023-11-19T01:36:38;98911.78;;;12.80;83.04
30021;BME280;16861;52.294;7.760;2023-11-19T01:39:06;98926.41;;;12.84;83.15
30021;BME280;16861;52.294;7.760;2023-11-19T01:41:36;98916.56;;;12.86;82.93
30021;BME280;16861;52.294;7.760;2023-11-19T01:44:03;98913.56;;;12.91;82.51
30021;BME280;16861;52.294;7.760;2023-11-19T01:46:30;98900.22;;;12.93;82.73
30021;BME280;16861;52.294;7.760;2023-11-19T01:48:59;98914.88;;;12.97;82.79
30021;BME280;16861;52.294;7.760;2023-11-19T01:51:27;98914.72;;;12.98;82.82
30021;BME280;16861;52.294;7.760;2023-11-19T01:53:54;98926.88;;;13.01;82.78
30021;BME280;16861;52.294;7.760;2023-11-19T01:56:23;98920.50;;;13.03;82.55
30021;BME280;16861;52.294;7.760;2023-11-19T01:58:51;98907.16;;;13.05;82.79
30021;BME280;16861;52.294;7.760;2023-11-19T02:01:20;98882.31;;;13.08;82.80
30021;BME280;16861;52.294;7.760;2023-11-19T02:03:47;98880.34;;;13.10;82.68
30021;BME280;16861;52.294;7.760;2023-11-19T02:06:14;98900.41;;;13.12;82.50
30021;BME280;16861;52.294;7.760;2023-11-19T02:08:42;98896.78;;;13.13;82.76
30021;BME280;16861;52.294;7.760;2023-11-19T02:11:10;98898.38;;;13.16;82.97
30021;BME280;16861;52.294;7.760;2023-11-19T02:13:38;98881.53;;;13.17;83.05
30021;BME280;16861;52.294;7.760;2023-11-19T02:16:06;98891.03;;;13.20;83.13
30021;BME280;16861;52.294;7.760;2023-11-19T02:18:33;98874.91;;;13.23;83.20
30021;BME280;16861;52.294;7.760;2023-11-19T02:21:00;98872.00;;;13.26;83.07
30021;BME280;16861;52.294;7.760;2023-11-19T02:23:27;98864.81;;;13.28;83.12
30021;BME280;16861;52.294;7.760;2023-11-19T02:28:43;98873.88;;;13.35;83.13
30021;BME280;16861;52.294;7.760;2023-11-19T02:31:10;98867.53;;;13.38;83.12
30021;BME280;16861;52.294;7.760;2023-11-19T02:33:38;98864.59;;;13.41;83.33
30021;BME280;16861;52.294;7.760;2023-11-19T02:36:06;98865.19;;;13.45;83.18
30021;BME280;16861;52.294;7.760;2023-11-19T02:38:35;98868.53;;;13.47;83.15
30021;BME280;16861;52.294;7.760;2023-11-19T02:41:06;98857.03;;;13.48;83.19
30021;BME280;16861;52.294;7.760;2023-11-19T02:43:34;98862.78;;;13.53;83.40
30021;BME280;16861;52.294;7.760;2023-11-19T02:46:01;98863.50;;;13.55;83.24
30021;BME280;16861;52.294;7.760;2023-11-19T02:48:41;98857.94;;;13.58;83.14
30021;BME280;16861;52.294;7.760;2023-11-19T02:51:09;98860.31;;;13.61;83.43
30021;BME280;16861;52.294;7.760;2023-11-19T02:53:37;98853.97;;;13.64;83.39
30021;BME280;16861;52.294;7.760;2023-11-19T02:56:04;98861.59;;;13.67;83.53
30021;BME280;16861;52.294;7.760;2023-11-19T02:58:52;98852.44;;;13.71;83.37
30021;BME280;16861;52.294;7.760;2023-11-19T03:01:24;98837.44;;;13.72;83.19
30021;BME280;16861;52.294;7.760;2023-11-19T03:03:57;98847.47;;;13.78;83.08
30021;BME280;16861;52.294;7.760;2023-11-19T03:06:25;98850.00;;;13.79;83.11
30021;BME280;16861;52.294;7.760;2023-11-19T03:08:51;98841.81;;;13.83;83.28
30021;BME280;16861;52.294;7.760;2023-11-19T03:11:18;98842.50;;;13.85;83.40
30021;BME280;16861;52.294;7.760;2023-11-19T03:13:45;98836.09;;;13.87;83.21
30021;BME280;16861;52.294;7.760;2023-11-19T03:16:13;98834.19;;;13.89;83.05
30021;BME280;16861;52.294;7.760;2023-11-19T03:18:41;98832.22;;;13.91;82.93
30021;BME280;16861;52.294;7.760;2023-11-19T03:21:07;98841.69;;;13.94;82.97
30021;BME280;16861;52.294;7.760;2023-11-19T03:23:35;98847.72;;;13.96;82.88
30021;BME280;16861;52.294;7.760;2023-11-19T03:26:02;98850.22;;;13.98;82.87
30021;BME280;16861;52.294;7.760;2023-11-19T03:28:32;98851.78;;;14.00;82.66
30021;BME280;16861;52.294;7.760;2023-11-19T03:30:59;98852.59;;;14.01;82.76
30021;BME280;16861;52.294;7.760;2023-11-19T03:33:26;98859.47;;;14.03;82.62
30021;BME280;16861;52.294;7.760;2023-11-19T03:35:56;98842.72;;;14.03;82.50
30021;BME280;16861;52.294;7.760;2023-11-19T03:38:24;98831.88;;;14.06;82.58
30021;BME280;16861;52.294;7.760;2023-11-19T03:40:51;98835.34;;;14.06;82.49
30021;BME280;16861;52.294;7.760;2023-11-19T03:43:18;98839.53;;;14.09;82.50
30021;BME280;16861;52.294;7.760;2023-11-19T03:45:46;98839.53;;;14.09;82.46
30021;BME280;16861;52.294;7.760;2023-11-19T03:48:13;98837.63;;;14.11;82.60
30021;BME280;16861;52.294;7.760;2023-11-19T03:50:43;98839.28;;;14.12;82.55
30021;BME280;16861;52.294;7.760;2023-11-19T03:53:09;98829.41;;;14.14;82.57
30021;BME280;16861;52.294;7.760;2023-11-19T03:55:36;98825.66;;;14.17;82.48
30021;BME280;16861;52.294;7.760;2023-11-19T03:58:02;98839.72;;;14.17;82.70
30021;BME280;16861;52.294;7.760;2023-11-19T04:00:29;98844.75;;;14.20;82.76
30021;BME280;16861;52.294;7.760;2023-11-19T04:02:56;98834.16;;;14.20;82.42
30021;BME280;16861;52.294;7.760;2023-11-19T04:05:22;98848.09;;;14.23;82.40
30021;BME280;16861;52.294;7.760;2023-11-19T04:07:49;98829.56;;;14.23;82.21
30021;BME280;16861;52.294;7.760;2023-11-19T04:10:15;98838.47;;;14.22;82.35
30021;BME280;16861;52.294;7.760;2023-11-19T04:12:43;98827.88;;;14.22;82.17
30021;BME280;16861;52.294;7.760;2023-11-19T04:15:11;98827.06;;;14.21;81.97
30021;BME280;16861;52.294;7.760;2023-11-19T04:17:38;98828.75;;;14.22;82.25
30021;BME280;16861;52.294;7.760;2023-11-19T04:20:05;98827.88;;;14.22;82.18
30021;BME280;16861;52.294;7.760;2023-11-19T04:22:32;98835.84;;;14.22;81.97
30021;BME280;16861;52.294;7.760;2023-11-19T04:24:59;98830.41;;;14.23;82.03
30021;BME280;16861;52.294;7.760;2023-11-19T04:27:26;98822.59;;;14.22;81.85
30021;BME280;16861;52.294;7.760;2023-11-19T04:29:52;98828.75;;;14.22;82.20
30021;BME280;16861;52.294;7.760;2023-11-19T04:32:20;98829.56;;;14.23;81.64
30021;BME280;16861;52.294;7.760;2023-11-19T04:34:47;98824.44;;;14.21;81.73
30021;BME280;16861;52.294;7.760;2023-11-19T04:37:14;98825.25;;;14.22;81.54
30021;BME280;16861;52.294;7.760;2023-11-19T04:39:40;98821.78;;;14.21;81.45
30021;BME280;16861;52.294;7.760;2023-11-19T04:42:07;98813.97;;;14.19;81.43
30021;BME280;16861;52.294;7.760;2023-11-19T04:44:33;98809.66;;;14.18;81.20
30021;BME280;16861;52.294;7.760;2023-11-19T04:47:00;98808.94;;;14.16;81.29
30021;BME280;16861;52.294;7.760;2023-11-19T04:49:27;98814.22;;;14.16;81.17
30021;BME280;16861;52.294;7.760;2023-11-19T04:51:54;98831.91;;;14.16;81.16
30021;BME280;16861;52.294;7.760;2023-11-19T04:54:24;98835.66;;;14.13;80.97
30021;BME280;16861;52.294;7.760;2023-11-19T04:56:50;98826.06;;;14.12;80.89
30021;BME280;16861;52.294;7.760;2023-11-19T04:59:17;98825.34;;;14.10;80.83
30021;BME280;16861;52.294;7.760;2023-11-19T05:01:47;98828.38;;;14.05;80.22
30021;BME280;16861;52.294;7.760;2023-11-19T05:04:14;98840.78;;;14.05;80.68
30021;BME280;16861;52.294;7.760;2023-11-19T05:06:41;98837.44;;;14.03;80.56
30021;BME280;16861;52.294;7.760;2023-11-19T05:09:08;98841.88;;;14.02;80.71
30021;BME280;16861;52.294;7.760;2023-11-19T05:11:35;98836.72;;;14.01;80.85
30021;BME280;16861;52.294;7.760;2023-11-19T05:14:03;98837.00;;;13.98;80.85
30021;BME280;16861;52.294;7.760;2023-11-19T05:16:32;98842.28;;;13.98;81.11
30021;BME280;16861;52.294;7.760;2023-11-19T05:18:59;98836.03;;;13.99;80.99
30021;BME280;16861;52.294;7.760;2023-11-19T05:21:26;98829.88;;;13.98;80.69
30021;BME280;16861;52.294;7.760;2023-11-19T05:23:52;98824.75;;;13.97;80.45
30021;BME280;16861;52.294;7.760;2023-11-19T05:26:20;98834.47;;;13.96;80.17
30021;BME280;16861;52.294;7.760;2023-11-19T05:28:48;98824.16;;;13.93;80.04
30021;BME280;16861;52.294;7.760;2023-11-19T05:31:16;98837.63;;;13.90;79.89
30021;BME280;16861;52.294;7.760;2023-11-19T05:33:43;98831.66;;;13.88;80.11
30021;BME280;16861;52.294;7.760;2023-11-19T05:36:11;98830.13;;;13.85;80.06
30021;BME280;16861;52.294;7.760;2023-11-19T05:38:39;98828.31;;;13.86;80.09
30021;BME280;16861;52.294;7.760;2023-11-19T05:41:06;98826.75;;;13.83;80.30
30021;BME280;16861;52.294;7.760;2023-11-19T05:43:33;98822.44;;;13.82;80.16
30021;BME280;16861;52.294;7.760;2023-11-19T05:46:00;98832.19;;;13.81;80.13
30021;BME280;16861;52.294;7.760;2023-11-19T05:48:28;98834.97;;;13.80;80.06
30021;BME280;16861;52.294;7.760;2023-11-19T05:50:55;98841.19;;;13.79;79.88
30021;BME280;16861;52.294;7.760;2023-11-19T05:53:22;98844.13;;;13.76;79.99
30021;BME280;16861;52.294;7.760;2023-11-19T05:55:48;98845.94;;;13.75;80.00
30021;BME280;16861;52.294;7.760;2023-11-19T05:58:25;98859.41;;;13.72;79.38
30021;BME280;16861;52.294;7.760;2023-11-19T06:03:29;98850.78;;;13.70;79.42
30021;BME280;16861;52.294;7.760;2023-11-19T06:05:55;98847.41;;;13.68;79.63
30021;BME280;16861;52.294;7.760;2023-11-19T06:08:22;98850.22;;;13.66;79.48
30021;BME280;16861;52.294;7.760;2023-11-19T06:10:49;98863.56;;;13.65;79.49
30021;BME280;16861;52.294;7.760;2023-11-19T06:13:17;98861.03;;;13.63;79.24
30021;BME280;16861;52.294;7.760;2023-11-19T06:15:44;98852.38;;;13.61;79.36
30021;BME280;16861;52.294;7.760;2023-11-19T06:18:10;98863.13;;;13.60;79.22
30021;BME280;16861;52.294;7.760;2023-11-19T06:20:39;98864.91;;;13.59;79.18
30021;BME280;16861;52.294;7.760;2023-11-19T06:23:08;98863.25;;;13.58;78.91
30021;BME280;16861;52.294;7.760;2023-11-19T06:25:39;98859.75;;;13.58;78.79
30021;BME280;16861;52.294;7.760;2023-11-19T06:28:06;98866.81;;;13.57;78.87
30021;BME280;16861;52.294;7.760;2023-11-19T06:30:32;98879.34;;;13.55;78.90
30021;BME280;16861;52.294;7.760;2023-11-19T06:32:59;98869.75;;;13.54;78.48
30021;BME280;16861;52.294;7.760;2023-11-19T06:35:27;98873.50;;;13.51;78.44
30021;BME280;16861;52.294;7.760;2023-11-19T06:38:05;98870.00;;;13.51;78.48
30021;BME280;16861;52.294;7.760;2023-11-19T06:40:35;98871.94;;;13.49;78.26
30021;BME280;16861;52.294;7.760;2023-11-19T06:43:02;98879.13;;;13.47;78.20
30021;BME280;16861;52.294;7.760;2023-11-19T06:45:30;98892.47;;;13.45;78.32
30021;BME280;16861;52.294;7.760;2023-11-19T06:47:57;98873.38;;;13.41;78.26
30021;BME280;16861;52.294;7.760;2023-11-19T06:50:27;98883.97;;;13.41;78.26
30021;BME280;16861;52.294;7.760;2023-11-19T06:52:53;98883.09;;;13.41;78.54
30021;BME280;16861;52.294;7.760;2023-11-19T06:55:20;98880.47;;;13.41;78.36
30021;BME280;16861;52.294;7.760;2023-11-19T06:57:50;98883.09;;;13.41;78.34
30021;BME280;16861;52.294;7.760;2023-11-19T07:00:19;98879.53;;;13.42;78.63
30021;BME280;16861;52.294;7.760;2023-11-19T07:02:49;98884.94;;;13.40;78.26
30021;BME280;16861;52.294;7.760;2023-11-19T07:05:23;98885.19;;;13.37;77.03
30021;BME280;16861;52.294;7.760;2023-11-19T07:07:51;98890.22;;;13.40;78.39
30021;BME280;16861;52.294;7.760;2023-11-19T07:10:28;98893.09;;;13.37;76.98
30021;BME280;16861;52.294;7.760;2023-11-19T07:12:56;98881.56;;;13.38;78.04
30021;BME280;16861;52.294;7.760;2023-11-19T07:15:26;98887.56;;;13.40;78.41
30021;BME280;16861;52.294;7.760;2023-11-19T07:17:52;98894.53;;;13.41;78.52
30021;BME280;16861;52.294;7.760;2023-11-19T07:20:26;98888.50;;;13.39;77.80
30021;BME280;16861;52.294;7.760;2023-11-19T07:22:56;98887.56;;;13.40;77.66
30021;BME280;16861;52.294;7.760;2023-11-19T07:25:24;98883.97;;;13.41;78.16
30021;BME280;16861;52.294;7.760;2023-11-19T07:27:51;98894.53;;;13.41;77.88
30021;BME280;16861;52.294;7.760;2023-11-19T07:30:20;98899.81;;;13.41;78.11
30021;BME280;16861;52.294;7.760;2023-11-19T07:35:26;98900.50;;;13.43;77.95
30021;BME280;16861;52.294;7.760;2023-11-19T07:37:52;98913.59;;;13.45;78.04
30021;BME280;16861;52.294;7.760;2023-11-19T07:40:19;98909.16;;;13.46;78.14
30021;BME280;16861;52.294;7.760;2023-11-19T07:42:46;98911.81;;;13.46;78.06
30021;BME280;16861;52.294;7.760;2023-11-19T07:45:12;98916.97;;;13.47;78.23
30021;BME280;16861;52.294;7.760;2023-11-19T07:47:39;98914.34;;;13.47;77.85
30021;BME280;16861;52.294;7.760;2023-11-19T07:50:06;98922.28;;;13.47;77.86
30021;BME280;16861;52.294;7.760;2023-11-19T07:52:33;98924.81;;;13.49;77.63
30021;BME280;16861;52.294;7.760;2023-11-19T07:55:00;98929.25;;;13.48;77.60
30021;BME280;16861;52.294;7.760;2023-11-19T07:57:27;98934.41;;;13.50;77.82
30021;BME280;16861;52.294;7.760;2023-11-19T07:59:57;98948.63;;;13.49;77.49
30021;BME280;16861;52.294;7.760;2023-11-19T08:02:24;98941.38;;;13.51;77.62
30021;BME280;16861;52.294;7.760;2023-11-19T08:04:51;98948.47;;;13.50;77.53
30021;BME280;16861;52.294;7.760;2023-11-19T08:07:18;98948.47;;;13.50;77.57
30021;BME280;16861;52.294;7.760;2023-11-19T08:09:48;98944.75;;;13.53;77.52
30021;BME280;16861;52.294;7.760;2023-11-19T08:12:15;98948.22;;;13.53;77.50
30021;BME280;16861;52.294;7.760;2023-11-19T08:14:43;98951.72;;;13.54;77.33
30021;BME280;16861;52.294;7.760;2023-11-19T08:17:10;98954.34;;;13.54;77.33
30021;BME280;16861;52.294;7.760;2023-11-19T08:19:37;98959.53;;;13.55;77.34
30021;BME280;16861;52.294;7.760;2023-11-19T08:22:03;98952.41;;;13.56;77.34
30021;BME280;16861;52.294;7.760;2023-11-19T08:24:30;98970.91;;;13.56;76.93
30021;BME280;16861;52.294;7.760;2023-11-19T08:26:56;98969.94;;;13.57;76.99
30021;BME280;16861;52.294;7.760;2023-11-19T08:29:26;98957.56;;;13.58;77.09
30021;BME280;16861;52.294;7.760;2023-11-19T08:31:54;98963.00;;;13.56;76.72
30021;BME280;16861;52.294;7.760;2023-11-19T08:34:20;98954.22;;;13.55;76.91
30021;BME280;16861;52.294;7.760;2023-11-19T08:36:50;98955.19;;;13.54;76.37
30021;BME280;16861;52.294;7.760;2023-11-19T08:39:16;98969.13;;;13.57;77.11
30021;BME280;16861;52.294;7.760;2023-11-19T08:41:43;98963.00;;;13.56;77.12
30021;BME280;16861;52.294;7.760;2023-11-19T08:44:12;98963.97;;;13.55;76.49
30021;BME280;16861;52.294;7.760;2023-11-19T08:46:39;98957.56;;;13.58;76.98
30021;BME280;16861;52.294;7.760;2023-11-19T08:49:06;98957.56;;;13.58;76.83
30021;BME280;16861;52.294;7.760;2023-11-19T08:51:34;98969.00;;;13.58;76.51
30021;BME280;16861;52.294;7.760;2023-11-19T08:54:01;98971.66;;;13.58;76.50
30021;BME280;16861;52.294;7.760;2023-11-19T09:00:10;98974.41;;;13.57;76.26
30021;BME280;16861;52.294;7.760;2023-11-19T09:02:37;98978.97;;;13.54;76.34
30021;BME280;16861;52.294;7.760;2023-11-19T09:05:05;98979.25;;;13.51;76.30
30021;BME280;16861;52.294;7.760;2023-11-19T09:07:32;98974.28;;;13.47;75.59
30021;BME280;16861;52.294;7.760;2023-11-19T09:09:58;98986.06;;;13.42;76.14
30021;BME280;16861;52.294;7.760;2023-11-19T09:12:25;98988.25;;;13.37;76.40
30021;BME280;16861;52.294;7.760;2023-11-19T09:15:06;98986.13;;;13.31;75.72
30021;BME280;16861;52.294;7.760;2023-11-19T09:17:37;98983.50;;;13.31;76.61
30021;BME280;16861;52.294;7.760;2023-11-19T09:20:04;98983.72;;;13.28;76.89
30021;BME280;16861;52.294;7.760;2023-11-19T09:22:32;98976.03;;;13.25;77.22
30021;BME280;16861;52.294;7.760;2023-11-19T09:24:59;98975.19;;;13.24;77.22
30021;BME280;16861;52.294;7.760;2023-11-19T09:27:27;98972.53;;;13.24;77.24
30021;BME280;16861;52.294;7.760;2023-11-19T09:29:54;98973.41;;;13.25;77.43
30021;BME280;16861;52.294;7.760;2023-11-19T09:32:24;98988.16;;;13.27;77.55
30021;BME280;16861;52.294;7.760;2023-11-19T09:34:54;98978.31;;;13.29;77.37
30021;BME280;16861;52.294;7.760;2023-11-19T09:37:21;98968.44;;;13.32;77.61
30021;BME280;16861;52.294;7.760;2023-11-19T09:39:51;98976.97;;;13.35;77.41
30021;BME280;16861;52.294;7.760;2023-11-19T09:42:28;98978.66;;;13.36;76.96
30021;BME280;16861;52.294;7.760;2023-11-19T09:45:12;98966.88;;;13.40;76.12
30021;BME280;16861;52.294;7.760;2023-11-19T09:47:46;98985.84;;;13.46;76.64
30021;BME280;16861;52.294;7.760;2023-11-19T09:50:19;98982.84;;;13.50;76.04
30021;BME280;16861;52.294;7.760;2023-11-19T09:53:05;98980.91;;;13.52;75.48
30021;BME280;16861;52.294;7.760;2023-11-19T09:55:44;98981.25;;;13.59;77.01
30021;BME280;16861;52.294;7.760;2023-11-19T09:58:16;98994.47;;;13.59;75.29
30021;BME280;16861;52.294;7.760;2023-11-19T10:00:48;98972.09;;;13.63;76.64
30021;BME280;16861;52.294;7.760;2023-11-19T10:03:37;98973.66;;;13.66;76.63
30021;BME280;16861;52.294;7.760;2023-11-19T10:06:20;98981.47;;;13.67;76.18
30021;BME280;16861;52.294;7.760;2023-11-19T10:09:06;98979.78;;;13.66;75.08
30021;BME280;16861;52.294;7.760;2023-11-19T10:11:39;98971.47;;;13.71;76.10
30021;BME280;16861;52.294;7.760;2023-11-19T10:14:34;98971.22;;;13.74;76.01
30021;BME280;16861;52.294;7.760;2023-11-19T10:17:10;98974.56;;;13.76;75.89
30021;BME280;16861;52.294;7.760;2023-11-19T10:19:41;98977.81;;;13.80;76.38
30021;BME280;16861;52.294;7.760;2023-11-19T10:22:11;98961.94;;;13.80;76.55
30021;BME280;16861;52.294;7.760;2023-11-19T10:24:48;98961.66;;;13.83;76.60
30021;BME280;16861;52.294;7.760;2023-11-19T10:27:24;98981.03;;;13.84;76.01
30021;BME280;16861;52.294;7.760;2023-11-19T10:29:52;98973.81;;;13.86;75.92
30021;BME280;16861;52.294;7.760;2023-11-19T10:32:22;98978.25;;;13.85;75.65
30021;BME280;16861;52.294;7.760;2023-11-19T10:35:11;98964.69;;;13.78;74.20
30021;BME280;16861;52.294;7.760;2023-11-19T10:37:38;98968.03;;;13.80;75.72
30021;BME280;16861;52.294;7.760;2023-11-19T10:40:05;98960.22;;;13.79;75.77
30021;BME280;16861;52.294;7.760;2023-11-19T10:42:32;98963.03;;;13.77;76.06
30021;BME280;16861;52.294;7.760;2023-11-19T10:44:59;98962.31;;;13.75;76.32
30021;BME280;16861;52.294;7.760;2023-11-19T10:47:29;98964.38;;;13.72;75.00
30021;BME280;16861;52.294;7.760;2023-11-19T10:49:59;98962.44;;;13.74;76.20
30021;BME280;16861;52.294;7.760;2023-11-19T10:52:27;98968.00;;;13.71;76.27
30021;BME280;16861;52.294;7.760;2023-11-19T11:00:21;98961.72;;;13.72;75.81
30021;BME280;16861;52.294;7.760;2023-11-19T11:02:54;98965.59;;;13.67;74.64
30021;BME280;16861;52.294;7.760;2023-11-19T11:05:22;98971.84;;;13.66;76.28
30021;BME280;16861;52.294;7.760;2023-11-19T11:07:51;98960.56;;;13.64;76.12
30021;BME280;16861;52.294;7.760;2023-11-19T11:10:19;98959.00;;;13.62;76.49
30021;BME280;16861;52.294;7.760;2023-11-19T11:12:49;98957.34;;;13.61;76.40
30021;BME280;16861;52.294;7.760;2023-11-19T11:15:19;98961.88;;;13.59;76.30
30021;BME280;16861;52.294;7.760;2023-11-19T11:17:47;98965.63;;;13.56;76.19
30021;BME280;16861;52.294;7.760;2023-11-19T11:20:14;98954.47;;;13.52;76.48
30021;BME280;16861;52.294;7.760;2023-11-19T11:25:40;98944.50;;;13.45;76.62
30021;BME280;16861;52.294;7.760;2023-11-19T11:38:40;98939.84;;;13.70;77.69
30021;BME280;16861;52.294;7.760;2023-11-19T11:41:24;98931.22;;;13.67;74.67
30021;BME280;16861;52.294;7.760;2023-11-19T11:43:55;98939.34;;;13.76;77.15
30021;BME280;16861;52.294;7.760;2023-11-19T11:49:08;98941.88;;;13.77;75.60
30021;BME280;16861;52.294;7.760;2023-11-19T11:51:57;98937.41;;;13.78;75.38
30021;BME280;16861;52.294;7.760;2023-11-19T11:57:10;98943.41;;;13.80;74.22
30021;BME280;16861;52.294;7.760;2023-11-19T11:59:43;98939.56;;;13.84;75.40
30021;BME280;16861;52.294;7.760;2023-11-19T12:02:11;98941.91;;;13.87;76.21
30021;BME280;16861;52.294;7.760;2023-11-19T12:04:42;98938.31;;;13.88;75.66
30021;BME280;16861;52.294;7.760;2023-11-19T12:07:14;98926.50;;;13.92;76.15
30021;BME280;16861;52.294;7.760;2023-11-19T12:09:52;98923.34;;;13.99;77.14
30021;BME280;16861;52.294;7.760;2023-11-19T12:12:26;98930.19;;;14.01;74.39
30021;BME280;16861;52.294;7.760;2023-11-19T12:15:09;98923.78;;;14.04;74.26
30021;BME280;16861;52.294;7.760;2023-11-19T12:17:41;98917.25;;;14.08;74.66
30021;BME280;16861;52.294;7.760;2023-11-19T12:20:11;98918.69;;;14.12;75.92
30021;BME280;16861;52.294;7.760;2023-11-19T12:22:38;98923.84;;;14.14;75.64
30021;BME280;16861;52.294;7.760;2023-11-19T12:25:07;98908.81;;;14.14;75.67
30021;BME280;16861;52.294;7.760;2023-11-19T12:27:36;98909.38;;;14.18;75.77
30021;BME280;16861;52.294;7.760;2023-11-19T12:35:14;98896.72;;;14.22;74.92
30021;BME280;16861;52.294;7.760;2023-11-19T12:37:48;98894.78;;;14.24;75.03
30021;BME280;16861;52.294;7.760;2023-11-19T12:40:17;98900.91;;;14.24;74.96
30021;BME280;16861;52.294;7.760;2023-11-19T12:42:51;98892.25;;;14.22;71.45
30021;BME280;16861;52.294;7.760;2023-11-19T12:45:18;98892.69;;;14.27;75.06
30021;BME280;16861;52.294;7.760;2023-11-19T12:47:47;98904.56;;;14.33;75.70
30021;BME280;16861;52.294;7.760;2023-11-19T12:50:16;98890.22;;;14.36;75.08
30021;BME280;16861;52.294;7.760;2023-11-19T12:52:56;98908.75;;;14.36;71.52
30021;BME280;16861;52.294;7.760;2023-11-19T12:55:29;98880.19;;;14.39;72.81
30021;BME280;16861;52.294;7.760;2023-11-19T12:57:57;98884.53;;;14.40;73.89
30021;BME280;16861;52.294;7.760;2023-11-19T13:00:26;98888.00;;;14.41;73.86
30021;BME280;16861;52.294;7.760;2023-11-19T13:02:55;98894.16;;;14.41;73.91
30021;BME280;16861;52.294;7.760;2023-11-19T13:05:33;98892.75;;;14.37;72.83
30021;BME280;16861;52.294;7.760;2023-11-19T13:08:03;98889.00;;;14.40;73.96
30021;BME280;16861;52.294;7.760;2023-11-19T13:10:50;98888.13;;;14.39;74.17
30021;BME280;16861;52.294;7.760;2023-11-19T13:13:17;98883.69;;;14.40;74.44
30021;BME280;16861;52.294;7.760;2023-11-19T13:15:44;98877.41;;;14.41;74.71
30021;BME280;16861;52.294;7.760;2023-11-19T13:18:16;98874.78;;;14.41;73.35
30021;BME280;16861;52.294;7.760;2023-11-19T13:20:43;98872.00;;;14.42;74.45
30021;BME280;16861;52.294;7.760;2023-11-19T13:23:09;98876.31;;;14.43;74.29
30021;BME280;16861;52.294;7.760;2023-11-19T13:25:42;98877.97;;;14.44;74.40
30021;BME280;16861;52.294;7.760;2023-11-19T13:28:10;98879.69;;;14.45;74.36
30021;BME280;16861;52.294;7.760;2023-11-19T13:30:36;98884.97;;;14.45;73.88
30021;BME280;16861;52.294;7.760;2023-11-19T13:33:03;98884.13;;;14.45;73.86
30021;BME280;16861;52.294;7.760;2023-11-19T13:35:29;98878.25;;;14.41;73.79
30021;BME280;16861;52.294;7.760;2023-11-19T13:37:56;98868.66;;;14.40;73.62
30021;BME280;16861;52.294;7.760;2023-11-19T13:40:23;98878.66;;;14.37;73.47
30021;BME280;16861;52.294;7.760;2023-11-19T13:42:51;98873.63;;;14.33;73.44
30021;BME280;16861;52.294;7.760;2023-11-19T13:45:17;98867.63;;;14.31;73.65
30021;BME280;16861;52.294;7.760;2023-11-19T13:47:46;98868.75;;;14.29;73.65
30021;BME280;16861;52.294;7.760;2023-11-19T13:50:14;98865.38;;;14.27;73.61